sensor_id;sensor_type;location;lat;lon;timestamp;P1;durP1;ratioP1;P2;durP2;ratioP2
35679;SDS011;21803;53.586;10.040;2023-11-21T00:00:44;0.60;;;0.60;;
35679;SDS011;21803;53.586;10.040;2023-11-21T00:03:10;0.68;;;0.50;;
35679;SDS011;21803;53.586;10.040;2023-11-21T00:05:39;0.80;;;0.40;;
35679;SDS011;21803;53.586;10.040;2023-11-21T00:08:06;1.02;;;0.75;;
35679;SDS011;21803;53.586;10.040;2023-11-21T00:10:32;0.80;;;0.80;;
35679;SDS011;21803;53.586;10.040;2023-11-21T00:12:59;2.08;;;0.60;;
35679;SDS011;21803;53.586;10.040;2023-11-21T00:15:24;1.02;;;0.60;;
35679;SDS011;21803;53.586;10.040;2023-11-21T00:17:51;1.13;;;0.60;;
35679;SDS011;21803;53.586;10.040;2023-11-21T00:20:16;0.60;;;0.60;;
35679;SDS011;21803;53.586;10.040;2023-11-21T00:22:42;1.02;;;0.60;;
35679;SDS011;21803;53.586;10.040;2023-11-21T00:25:08;0.80;;;0.60;;
35679;SDS011;21803;53.586;10.040;2023-11-21T00:27:34;0.68;;;0.60;;
35679;SDS011;21803;53.586;10.040;2023-11-21T00:30:03;0.80;;;0.70;;
35679;SDS011;21803;53.586;10.040;2023-11-21T00:32:32;0.85;;;0.70;;
35679;SDS011;21803;53.586;10.040;2023-11-21T00:34:57;1.02;;;0.73;;
35679;SDS011;21803;53.586;10.040;2023-11-21T00:37:24;0.50;;;0.50;;
35679;SDS011;21803;53.586;10.040;2023-11-21T00:39:50;0.75;;;0.68;;
35679;SDS011;21803;53.586;10.040;2023-11-21T00:42:15;0.75;;;0.68;;
35679;SDS011;21803;53.586;10.040;2023-11-21T00:44:40;0.77;;;0.60;;
35679;SDS011;21803;53.586;10.040;2023-11-21T00:47:06;0.70;;;0.60;;
35679;SDS011;21803;53.586;10.040;2023-11-21T00:49:33;1.13;;;0.70;;
35679;SDS011;21803;53.586;10.040;2023-11-21T00:51:58;0.60;;;0.60;;
35679;SDS011;21803;53.586;10.040;2023-11-21T00:54:24;0.93;;;0.85;;
35679;SDS011;21803;53.586;10.040;2023-11-21T00:56:49;0.80;;;0.57;;
35679;SDS011;21803;53.586;10.040;2023-11-21T00:59:15;0.80;;;0.63;;
35679;SDS011;21803;53.586;10.040;2023-11-21T01:01:40;0.90;;;0.70;;
35679;SDS011;21803;53.586;10.040;2023-11-21T01:04:06;1.00;;;0.80;;
35679;SDS011;21803;53.586;10.040;2023-11-21T01:06:34;0.73;;;0.70;;
35679;SDS011;21803;53.586;10.040;2023-11-21T01:08:59;1.10;;;0.70;;
35679;SDS011;21803;53.586;10.040;2023-11-21T01:11:25;0.85;;;0.73;;
35679;SDS011;21803;53.586;10.040;2023-11-21T01:13:51;0.75;;;0.65;;
35679;SDS011;21803;53.586;10.040;2023-11-21T01:16:17;0.65;;;0.65;;
35679;SDS011;21803;53.586;10.040;2023-11-21T01:18:43;0.65;;;0.60;;
35679;SDS011;21803;53.586;10.040;2023-11-21T01:21:08;1.23;;;0.88;;
35679;SDS011;21803;53.586;10.040;2023-11-21T01:23:34;1.60;;;0.80;;
35679;SDS011;21803;53.586;10.040;2023-11-21T01:26:00;0.98;;;0.88;;
35679;SDS011;21803;53.586;10.040;2023-11-21T01:28:25;1.20;;;0.80;;
35679;SDS011;21803;53.586;10.040;2023-11-21T01:30:51;1.80;;;0.90;;
35679;SDS011;21803;53.586;10.040;2023-11-21T01:33:18;0.70;;;0.70;;
35679;SDS011;21803;53.586;10.040;2023-11-21T01:35:43;0.70;;;0.65;;
35679;SDS011;21803;53.586;10.040;2023-11-21T01:38:11;0.90;;;0.80;;
35679;SDS011;21803;53.586;10.040;2023-11-21T01:40:37;1.23;;;0.80;;
35679;SDS011;21803;53.586;10.040;2023-11-21T01:43:02;2.25;;;0.85;;
35679;SDS011;21803;53.586;10.040;2023-11-21T01:45:28;1.25;;;0.70;;
35679;SDS011;21803;53.586;10.040;2023-11-21T01:47:56;1.23;;;0.90;;
35679;SDS011;21803;53.586;10.040;2023-11-21T01:50:23;0.85;;;0.50;;
35679;SDS011;21803;53.586;10.040;2023-11-21T01:52:49;1.25;;;0.70;;
35679;SDS011;21803;53.586;10.040;2023-11-21T01:55:16;1.52;;;0.80;;
35679;SDS011;21803;53.586;10.040;2023-11-21T01:57:45;0.77;;;0.60;;
35679;SDS011;21803;53.586;10.040;2023-11-21T02:00:12;1.00;;;0.85;;
35679;SDS011;21803;53.586;10.040;2023-11-21T02:02:47;0.70;;;0.60;;
35679;SDS011;21803;53.586;10.040;2023-11-21T02:05:16;0.80;;;0.73;;
35679;SDS011;21803;53.586;10.040;2023-11-21T02:07:43;0.73;;;0.70;;
35679;SDS011;21803;53.586;10.040;2023-11-21T02:10:12;0.55;;;0.55;;
35679;SDS011;21803;53.586;10.040;2023-11-21T02:12:40;0.60;;;0.60;;
35679;SDS011;21803;53.586;10.040;2023-11-21T02:15:07;0.85;;;0.80;;
35679;SDS011;21803;53.586;10.040;2023-11-21T02:17:39;0.93;;;0.77;;
35679;SDS011;21803;53.586;10.040;2023-11-21T02:20:12;0.90;;;0.70;;
35679;SDS011;21803;53.586;10.040;2023-11-21T02:22:40;0.77;;;0.70;;
35679;SDS011;21803;53.586;10.040;2023-11-21T02:25:07;0.90;;;0.80;;
35679;SDS011;21803;53.586;10.040;2023-11-21T02:27:33;1.00;;;0.82;;
35679;SDS011;21803;53.586;10.040;2023-11-21T02:29:58;1.15;;;0.98;;
35679;SDS011;21803;53.586;10.040;2023-11-21T02:32:25;0.60;;;0.60;;
35679;SDS011;21803;53.586;10.040;2023-11-21T02:34:51;1.15;;;0.70;;
35679;SDS011;21803;53.586;10.040;2023-11-21T02:37:16;0.88;;;0.70;;
35679;SDS011;21803;53.586;10.040;2023-11-21T02:39:42;0.70;;;0.60;;
35679;SDS011;21803;53.586;10.040;2023-11-21T02:42:08;0.60;;;0.60;;
35679;SDS011;21803;53.586;10.040;2023-11-21T02:44:33;0.70;;;0.60;;
35679;SDS011;21803;53.586;10.040;2023-11-21T02:46:59;0.85;;;0.70;;
35679;SDS011;21803;53.586;10.040;2023-11-21T02:49:25;0.82;;;0.70;;
35679;SDS011;21803;53.586;10.040;2023-11-21T02:51:53;0.57;;;0.50;;
35679;SDS011;21803;53.586;10.040;2023-11-21T02:54:20;0.60;;;0.60;;
35679;SDS011;21803;53.586;10.040;2023-11-21T02:56:47;0.60;;;0.60;;
35679;SDS011;21803;53.586;10.040;2023-11-21T02:59:12;0.60;;;0.60;;
35679;SDS011;21803;53.586;10.040;2023-11-21T03:01:38;1.02;;;0.73;;
35679;SDS011;21803;53.586;10.040;2023-11-21T03:04:04;0.75;;;0.68;;
35679;SDS011;21803;53.586;10.040;2023-11-21T03:06:29;0.73;;;0.70;;
35679;SDS011;21803;53.586;10.040;2023-11-21T03:08:55;0.73;;;0.68;;
35679;SDS011;21803;53.586;10.040;2023-11-21T03:11:20;0.80;;;0.70;;
35679;SDS011;21803;53.586;10.040;2023-11-21T03:13:46;1.00;;;0.80;;
35679;SDS011;21803;53.586;10.040;2023-11-21T03:16:12;0.77;;;0.70;;
35679;SDS011;21803;53.586;10.040;2023-11-21T03:18:37;0.90;;;0.75;;
35679;SDS011;21803;53.586;10.040;2023-11-21T03:21:04;1.10;;;0.77;;
35679;SDS011;21803;53.586;10.040;2023-11-21T03:23:30;0.90;;;0.60;;
35679;SDS011;21803;53.586;10.040;2023-11-21T03:25:56;1.10;;;0.80;;
35679;SDS011;21803;53.586;10.040;2023-11-21T03:28:22;0.90;;;0.70;;
35679;SDS011;21803;53.586;10.040;2023-11-21T03:30:48;0.80;;;0.80;;
35679;SDS011;21803;53.586;10.040;2023-11-21T03:33:14;0.65;;;0.60;;
35679;SDS011;21803;53.586;10.040;2023-11-21T03:35:39;0.93;;;0.80;;
35679;SDS011;21803;53.586;10.040;2023-11-21T03:38:06;0.88;;;0.77;;
35679;SDS011;21803;53.586;10.040;2023-11-21T03:40:32;0.65;;;0.65;;
35679;SDS011;21803;53.586;10.040;2023-11-21T03:42:58;0.82;;;0.77;;
35679;SDS011;21803;53.586;10.040;2023-11-21T03:45:23;0.68;;;0.68;;
35679;SDS011;21803;53.586;10.040;2023-11-21T03:47:49;0.82;;;0.80;;
35679;SDS011;21803;53.586;10.040;2023-11-21T03:50:15;0.75;;;0.70;;
35679;SDS011;21803;53.586;10.040;2023-11-21T03:52:40;0.65;;;0.65;;
35679;SDS011;21803;53.586;10.040;2023-11-21T03:55:06;1.02;;;0.65;;
35679;SDS011;21803;53.586;10.040;2023-11-21T03:57:32;0.90;;;0.70;;
35679;SDS011;21803;53.586;10.040;2023-11-21T03:59:57;0.50;;;0.50;;
35679;SDS011;21803;53.586;10.040;2023-11-21T04:02:23;0.80;;;0.80;;
35679;SDS011;21803;53.586;10.040;2023-11-21T04:04:50;1.67;;;0.70;;
35679;SDS011;21803;53.586;10.040;2023-11-21T04:07:16;0.70;;;0.70;;
35679;SDS011;21803;53.586;10.040;2023-11-21T04:09:42;1.33;;;0.73;;
35679;SDS011;21803;53.586;10.040;2023-11-21T04:12:08;0.82;;;0.70;;
35679;SDS011;21803;53.586;10.040;2023-11-21T04:14:36;0.98;;;0.80;;
35679;SDS011;21803;53.586;10.040;2023-11-21T04:17:01;0.77;;;0.77;;
35679;SDS011;21803;53.586;10.040;2023-11-21T04:19:29;0.80;;;0.73;;
35679;SDS011;21803;53.586;10.040;2023-11-21T04:21:54;0.70;;;0.57;;
35679;SDS011;21803;53.586;10.040;2023-11-21T04:24:20;0.77;;;0.70;;
35679;SDS011;21803;53.586;10.040;2023-11-21T04:26:45;0.95;;;0.80;;
35679;SDS011;21803;53.586;10.040;2023-11-21T04:29:11;0.90;;;0.80;;
35679;SDS011;21803;53.586;10.040;2023-11-21T04:31:37;0.80;;;0.75;;
35679;SDS011;21803;53.586;10.040;2023-11-21T04:34:02;1.17;;;0.70;;
35679;SDS011;21803;53.586;10.040;2023-11-21T04:36:29;1.15;;;0.90;;
35679;SDS011;21803;53.586;10.040;2023-11-21T04:38:55;1.60;;;0.95;;
35679;SDS011;21803;53.586;10.040;2023-11-21T04:41:21;1.13;;;0.90;;
35679;SDS011;21803;53.586;10.040;2023-11-21T04:43:47;1.08;;;0.70;;
35679;SDS011;21803;53.586;10.040;2023-11-21T04:46:12;0.80;;;0.75;;
35679;SDS011;21803;53.586;10.040;2023-11-21T04:48:38;0.88;;;0.85;;
35679;SDS011;21803;53.586;10.040;2023-11-21T04:51:03;1.10;;;0.82;;
35679;SDS011;21803;53.586;10.040;2023-11-21T04:53:29;0.90;;;0.80;;
35679;SDS011;21803;53.586;10.040;2023-11-21T04:55:55;0.82;;;0.60;;
35679;SDS011;21803;53.586;10.040;2023-11-21T04:58:20;0.93;;;0.82;;
35679;SDS011;21803;53.586;10.040;2023-11-21T05:00:46;0.80;;;0.70;;
35679;SDS011;21803;53.586;10.040;2023-11-21T05:03:11;0.95;;;0.85;;
35679;SDS011;21803;53.586;10.040;2023-11-21T05:05:37;1.52;;;0.90;;
35679;SDS011;21803;53.586;10.040;2023-11-21T05:08:03;0.90;;;0.80;;
35679;SDS011;21803;53.586;10.040;2023-11-21T05:10:29;0.80;;;0.77;;
35679;SDS011;21803;53.586;10.040;2023-11-21T05:12:55;0.70;;;0.70;;
35679;SDS011;21803;53.586;10.040;2023-11-21T05:15:20;0.80;;;0.80;;
35679;SDS011;21803;53.586;10.040;2023-11-21T05:17:46;0.98;;;0.85;;
35679;SDS011;21803;53.586;10.040;2023-11-21T05:20:15;0.95;;;0.88;;
35679;SDS011;21803;53.586;10.040;2023-11-21T05:22:46;0.80;;;0.80;;
35679;SDS011;21803;53.586;10.040;2023-11-21T05:25:13;0.77;;;0.70;;
35679;SDS011;21803;53.586;10.040;2023-11-21T05:27:39;1.00;;;0.80;;
35679;SDS011;21803;53.586;10.040;2023-11-21T05:30:04;1.48;;;1.10;;
35679;SDS011;21803;53.586;10.040;2023-11-21T05:32:31;0.95;;;0.80;;
35679;SDS011;21803;53.586;10.040;2023-11-21T05:35:00;0.80;;;0.80;;
35679;SDS011;21803;53.586;10.040;2023-11-21T05:37:26;1.00;;;0.90;;
35679;SDS011;21803;53.586;10.040;2023-11-21T05:39:52;0.85;;;0.80;;
35679;SDS011;21803;53.586;10.040;2023-11-21T05:42:21;0.82;;;0.80;;
35679;SDS011;21803;53.586;10.040;2023-11-21T05:44:47;1.15;;;0.88;;
35679;SDS011;21803;53.586;10.040;2023-11-21T05:47:12;0.70;;;0.60;;
35679;SDS011;21803;53.586;10.040;2023-11-21T05:49:38;0.90;;;0.70;;
35679;SDS011;21803;53.586;10.040;2023-11-21T05:52:04;0.95;;;0.85;;
35679;SDS011;21803;53.586;10.040;2023-11-21T05:54:30;1.00;;;0.80;;
35679;SDS011;21803;53.586;10.040;2023-11-21T05:56:55;1.08;;;0.80;;
35679;SDS011;21803;53.586;10.040;2023-11-21T05:59:21;0.82;;;0.77;;
35679;SDS011;21803;53.586;10.040;2023-11-21T06:01:47;1.10;;;0.90;;
35679;SDS011;21803;53.586;10.040;2023-11-21T06:04:13;0.70;;;0.70;;
35679;SDS011;21803;53.586;10.040;2023-11-21T06:06:38;1.02;;;0.90;;
35679;SDS011;21803;53.586;10.040;2023-11-21T06:09:04;0.90;;;0.90;;
35679;SDS011;21803;53.586;10.040;2023-11-21T06:11:31;0.88;;;0.77;;
35679;SDS011;21803;53.586;10.040;2023-11-21T06:13:57;0.82;;;0.82;;
35679;SDS011;21803;53.586;10.040;2023-11-21T06:16:23;1.08;;;0.93;;
35679;SDS011;21803;53.586;10.040;2023-11-21T06:18:49;0.75;;;0.70;;
35679;SDS011;21803;53.586;10.040;2023-11-21T06:21:14;0.90;;;0.80;;
35679;SDS011;21803;53.586;10.040;2023-11-21T06:23:41;1.00;;;0.85;;
35679;SDS011;21803;53.586;10.040;2023-11-21T06:26:07;1.08;;;0.82;;
35679;SDS011;21803;53.586;10.040;2023-11-21T06:28:34;1.10;;;1.00;;
35679;SDS011;21803;53.586;10.040;2023-11-21T06:31:00;0.70;;;0.70;;
35679;SDS011;21803;53.586;10.040;2023-11-21T06:33:30;0.95;;;0.80;;
35679;SDS011;21803;53.586;10.040;2023-11-21T06:35:56;1.05;;;0.85;;
35679;SDS011;21803;53.586;10.040;2023-11-21T06:38:21;1.05;;;0.63;;
35679;SDS011;21803;53.586;10.040;2023-11-21T06:40:47;0.90;;;0.80;;
35679;SDS011;21803;53.586;10.040;2023-11-21T06:43:13;1.10;;;1.00;;
35679;SDS011;21803;53.586;10.040;2023-11-21T06:45:39;0.82;;;0.70;;
35679;SDS011;21803;53.586;10.040;2023-11-21T06:48:04;0.93;;;0.73;;
35679;SDS011;21803;53.586;10.040;2023-11-21T06:50:30;0.77;;;0.73;;
35679;SDS011;21803;53.586;10.040;2023-11-21T06:52:56;0.90;;;0.70;;
35679;SDS011;21803;53.586;10.040;2023-11-21T06:55:21;1.00;;;0.90;;
35679;SDS011;21803;53.586;10.040;2023-11-21T06:57:47;1.02;;;0.82;;
35679;SDS011;21803;53.586;10.040;2023-11-21T07:00:13;1.05;;;0.90;;
35679;SDS011;21803;53.586;10.040;2023-11-21T07:02:40;0.75;;;0.70;;
35679;SDS011;21803;53.586;10.040;2023-11-21T07:05:06;1.30;;;1.00;;
35679;SDS011;21803;53.586;10.040;2023-11-21T07:07:32;0.90;;;0.80;;
35679;SDS011;21803;53.586;10.040;2023-11-21T07:10:00;1.20;;;1.00;;
35679;SDS011;21803;53.586;10.040;2023-11-21T07:12:28;0.98;;;0.90;;
35679;SDS011;21803;53.586;10.040;2023-11-21T07:14:55;0.80;;;0.80;;
35679;SDS011;21803;53.586;10.040;2023-11-21T07:17:20;1.42;;;1.00;;
35679;SDS011;21803;53.586;10.040;2023-11-21T07:19:48;0.93;;;0.80;;
35679;SDS011;21803;53.586;10.040;2023-11-21T07:22:13;1.08;;;0.90;;
35679;SDS011;21803;53.586;10.040;2023-11-21T07:24:40;1.10;;;0.90;;
35679;SDS011;21803;53.586;10.040;2023-11-21T07:27:05;1.20;;;0.90;;
35679;SDS011;21803;53.586;10.040;2023-11-21T07:29:31;0.77;;;0.70;;
35679;SDS011;21803;53.586;10.040;2023-11-21T07:31:58;1.30;;;0.98;;
35679;SDS011;21803;53.586;10.040;2023-11-21T07:34:23;0.90;;;0.80;;
35679;SDS011;21803;53.586;10.040;2023-11-21T07:36:49;0.95;;;0.88;;
35679;SDS011;21803;53.586;10.040;2023-11-21T07:39:14;0.93;;;0.70;;
35679;SDS011;21803;53.586;10.040;2023-11-21T07:41:41;0.90;;;0.88;;
35679;SDS011;21803;53.586;10.040;2023-11-21T07:44:10;1.10;;;1.00;;
35679;SDS011;21803;53.586;10.040;2023-11-21T07:46:36;0.77;;;0.77;;
35679;SDS011;21803;53.586;10.040;2023-11-21T07:49:01;1.20;;;0.85;;
35679;SDS011;21803;53.586;10.040;2023-11-21T07:51:27;1.05;;;0.80;;
35679;SDS011;21803;53.586;10.040;2023-11-21T07:53:52;1.17;;;0.90;;
35679;SDS011;21803;53.586;10.040;2023-11-21T07:56:18;1.08;;;0.90;;
35679;SDS011;21803;53.586;10.040;2023-11-21T07:58:43;0.90;;;0.85;;
35679;SDS011;21803;53.586;10.040;2023-11-21T08:01:09;0.80;;;0.80;;
35679;SDS011;21803;53.586;10.040;2023-11-21T08:03:36;1.23;;;0.85;;
35679;SDS011;21803;53.586;10.040;2023-11-21T08:06:02;1.15;;;0.85;;
35679;SDS011;21803;53.586;10.040;2023-11-21T08:08:28;1.00;;;0.90;;
35679;SDS011;21803;53.586;10.040;2023-11-21T08:10:54;1.08;;;0.90;;
35679;SDS011;21803;53.586;10.040;2023-11-21T08:13:23;1.23;;;0.90;;
35679;SDS011;21803;53.586;10.040;2023-11-21T08:15:50;1.00;;;0.88;;
35679;SDS011;21803;53.586;10.040;2023-11-21T08:18:19;1.23;;;0.90;;
35679;SDS011;21803;53.586;10.040;2023-11-21T08:20:44;1.30;;;0.90;;
35679;SDS011;21803;53.586;10.040;2023-11-21T08:23:12;1.00;;;0.90;;
35679;SDS011;21803;53.586;10.040;2023-11-21T08:25:40;1.00;;;0.90;;
35679;SDS011;21803;53.586;10.040;2023-11-21T08:28:07;1.10;;;0.90;;
35679;SDS011;21803;53.586;10.040;2023-11-21T08:30:32;1.23;;;1.00;;
35679;SDS011;21803;53.586;10.040;2023-11-21T08:32:59;1.17;;;1.08;;
35679;SDS011;21803;53.586;10.040;2023-11-21T08:35:25;1.40;;;0.93;;
35679;SDS011;21803;53.586;10.040;2023-11-21T08:37:51;0.90;;;0.80;;
35679;SDS011;21803;53.586;10.040;2023-11-21T08:40:17;0.88;;;0.80;;
35679;SDS011;21803;53.586;10.040;2023-11-21T08:42:44;1.30;;;1.10;;
35679;SDS011;21803;53.586;10.040;2023-11-21T08:45:10;1.00;;;0.82;;
35679;SDS011;21803;53.586;10.040;2023-11-21T08:47:37;1.65;;;1.00;;
35679;SDS011;21803;53.586;10.040;2023-11-21T08:50:04;1.48;;;0.90;;
35679;SDS011;21803;53.586;10.040;2023-11-21T08:52:33;1.30;;;0.75;;
35679;SDS011;21803;53.586;10.040;2023-11-21T08:54:59;1.15;;;0.90;;
35679;SDS011;21803;53.586;10.040;2023-11-21T08:57:32;0.88;;;0.80;;
35679;SDS011;21803;53.586;10.040;2023-11-21T08:59:58;1.08;;;0.80;;
35679;SDS011;21803;53.586;10.040;2023-11-21T09:02:27;1.23;;;1.10;;
35679;SDS011;21803;53.586;10.040;2023-11-21T09:04:52;1.20;;;1.10;;
35679;SDS011;21803;53.586;10.040;2023-11-21T09:07:18;1.05;;;0.70;;
35679;SDS011;21803;53.586;10.040;2023-11-21T09:09:45;1.20;;;1.02;;
35679;SDS011;21803;53.586;10.040;2023-11-21T09:12:14;1.60;;;1.00;;
35679;SDS011;21803;53.586;10.040;2023-11-21T09:14:40;1.10;;;1.00;;
35679;SDS011;21803;53.586;10.040;2023-11-21T09:17:07;1.73;;;1.10;;
35679;SDS011;21803;53.586;10.040;2023-11-21T09:19:39;1.30;;;1.00;;
35679;SDS011;21803;53.586;10.040;2023-11-21T09:22:10;1.65;;;0.90;;
35679;SDS011;21803;53.586;10.040;2023-11-21T09:24:36;1.33;;;1.10;;
35679;SDS011;21803;53.586;10.040;2023-11-21T09:27:02;1.65;;;0.90;;
35679;SDS011;21803;53.586;10.040;2023-11-21T09:29:30;1.27;;;1.00;;
35679;SDS011;21803;53.586;10.040;2023-11-21T09:31:55;1.60;;;1.08;;
35679;SDS011;21803;53.586;10.040;2023-11-21T09:34:24;2.22;;;1.75;;
35679;SDS011;21803;53.586;10.040;2023-11-21T09:36:50;4.32;;;2.40;;
35679;SDS011;21803;53.586;10.040;2023-11-21T09:39:16;4.68;;;2.20;;
35679;SDS011;21803;53.586;10.040;2023-11-21T09:41:46;4.70;;;2.80;;
35679;SDS011;21803;53.586;10.040;2023-11-21T09:44:15;5.43;;;2.45;;
35679;SDS011;21803;53.586;10.040;2023-11-21T09:46:43;4.80;;;2.85;;
35679;SDS011;21803;53.586;10.040;2023-11-21T09:49:13;4.55;;;2.60;;
35679;SDS011;21803;53.586;10.040;2023-11-21T09:51:43;6.25;;;2.70;;
35679;SDS011;21803;53.586;10.040;2023-11-21T09:54:11;4.85;;;2.65;;
35679;SDS011;21803;53.586;10.040;2023-11-21T09:56:40;5.53;;;2.63;;
35679;SDS011;21803;53.586;10.040;2023-11-21T09:59:07;5.15;;;2.38;;
35679;SDS011;21803;53.586;10.040;2023-11-21T10:01:38;4.97;;;2.50;;
35679;SDS011;21803;53.586;10.040;2023-11-21T10:04:05;3.83;;;2.40;;
35679;SDS011;21803;53.586;10.040;2023-11-21T10:06:36;4.88;;;2.47;;
35679;SDS011;21803;53.586;10.040;2023-11-21T10:09:04;3.88;;;2.22;;
35679;SDS011;21803;53.586;10.040;2023-11-21T10:11:36;3.47;;;1.95;;
35679;SDS011;21803;53.586;10.040;2023-11-21T10:14:07;4.90;;;2.00;;
35679;SDS011;21803;53.586;10.040;2023-11-21T10:16:35;4.82;;;1.90;;
35679;SDS011;21803;53.586;10.040;2023-11-21T10:19:04;2.50;;;1.90;;
35679;SDS011;21803;53.586;10.040;2023-11-21T10:21:32;4.03;;;2.38;;
35679;SDS011;21803;53.586;10.040;2023-11-21T10:23:58;2.30;;;1.70;;
35679;SDS011;21803;53.586;10.040;2023-11-21T10:26:23;4.57;;;2.10;;
35679;SDS011;21803;53.586;10.040;2023-11-21T10:29:01;2.33;;;1.48;;
35679;SDS011;21803;53.586;10.040;2023-11-21T10:31:31;2.10;;;1.48;;
35679;SDS011;21803;53.586;10.040;2023-11-21T10:34:11;2.90;;;1.50;;
35679;SDS011;21803;53.586;10.040;2023-11-21T10:36:41;2.15;;;1.60;;
35679;SDS011;21803;53.586;10.040;2023-11-21T10:39:06;2.53;;;1.50;;
35679;SDS011;21803;53.586;10.040;2023-11-21T10:41:32;2.67;;;1.52;;
35679;SDS011;21803;53.586;10.040;2023-11-21T10:43:59;1.73;;;1.40;;
35679;SDS011;21803;53.586;10.040;2023-11-21T10:46:24;2.17;;;1.48;;
35679;SDS011;21803;53.586;10.040;2023-11-21T10:48:53;1.55;;;1.30;;
35679;SDS011;21803;53.586;10.040;2023-11-21T10:51:22;2.10;;;1.33;;
35679;SDS011;21803;53.586;10.040;2023-11-21T10:53:53;1.95;;;1.30;;
35679;SDS011;21803;53.586;10.040;2023-11-21T10:56:19;2.80;;;1.35;;
35679;SDS011;21803;53.586;10.040;2023-11-21T10:58:49;1.90;;;1.27;;
35679;SDS011;21803;53.586;10.040;2023-11-21T11:01:18;1.48;;;1.10;;
35679;SDS011;21803;53.586;10.040;2023-11-21T11:03:46;1.77;;;1.38;;
35679;SDS011;21803;53.586;10.040;2023-11-21T11:06:13;1.67;;;1.30;;
35679;SDS011;21803;53.586;10.040;2023-11-21T11:08:40;1.92;;;1.25;;
35679;SDS011;21803;53.586;10.040;2023-11-21T11:11:06;1.77;;;1.20;;
35679;SDS011;21803;53.586;10.040;2023-11-21T11:13:32;1.63;;;1.25;;
35679;SDS011;21803;53.586;10.040;2023-11-21T11:15:59;1.80;;;1.20;;
35679;SDS011;21803;53.586;10.040;2023-11-21T11:18:26;2.58;;;1.02;;
35679;SDS011;21803;53.586;10.040;2023-11-21T11:21:01;2.75;;;1.17;;
35679;SDS011;21803;53.586;10.040;2023-11-21T11:26:47;1.60;;;0.95;;
35679;SDS011;21803;53.586;10.040;2023-11-21T11:29:25;1.23;;;0.90;;
35679;SDS011;21803;53.586;10.040;2023-11-21T11:32:06;2.28;;;1.20;;
35679;SDS011;21803;53.586;10.040;2023-11-21T11:34:41;1.80;;;1.02;;
35679;SDS011;21803;53.586;10.040;2023-11-21T11:37:12;1.30;;;1.08;;
35679;SDS011;21803;53.586;10.040;2023-11-21T11:39:39;1.85;;;1.20;;
35679;SDS011;21803;53.586;10.040;2023-11-21T11:42:07;1.42;;;1.00;;
35679;SDS011;21803;53.586;10.040;2023-11-21T11:47:32;1.20;;;0.90;;
35679;SDS011;21803;53.586;10.040;2023-11-21T11:50:09;1.60;;;1.15;;
35679;SDS011;21803;53.586;10.040;2023-11-21T11:52:46;1.30;;;1.00;;
35679;SDS011;21803;53.586;10.040;2023-11-21T11:55:14;1.35;;;1.10;;
35679;SDS011;21803;53.586;10.040;2023-11-21T11:57:44;1.00;;;0.80;;
35679;SDS011;21803;53.586;10.040;2023-11-21T12:00:20;2.20;;;1.10;;
35679;SDS011;21803;53.586;10.040;2023-11-21T12:03:07;1.98;;;0.90;;
35679;SDS011;21803;53.586;10.040;2023-11-21T12:05:34;1.02;;;0.90;;
35679;SDS011;21803;53.586;10.040;2023-11-21T12:08:03;1.30;;;1.00;;
35679;SDS011;21803;53.586;10.040;2023-11-21T12:10:30;1.20;;;0.98;;
35679;SDS011;21803;53.586;10.040;2023-11-21T12:12:59;1.50;;;0.88;;
35679;SDS011;21803;53.586;10.040;2023-11-21T12:15:26;1.00;;;0.90;;
35679;SDS011;21803;53.586;10.040;2023-11-21T12:17:56;1.05;;;0.80;;
35679;SDS011;21803;53.586;10.040;2023-11-21T12:20:22;1.52;;;0.90;;
35679;SDS011;21803;53.586;10.040;2023-11-21T12:22:53;1.20;;;0.90;;
35679;SDS011;21803;53.586;10.040;2023-11-21T12:25:23;0.80;;;0.70;;
35679;SDS011;21803;53.586;10.040;2023-11-21T12:27:54;0.90;;;0.80;;
35679;SDS011;21803;53.586;10.040;2023-11-21T12:30:21;2.13;;;0.90;;
35679;SDS011;21803;53.586;10.040;2023-11-21T12:32:51;1.30;;;1.00;;
35679;SDS011;21803;53.586;10.040;2023-11-21T12:35:19;0.90;;;0.90;;
35679;SDS011;21803;53.586;10.040;2023-11-21T12:37:46;1.17;;;1.08;;
35679;SDS011;21803;53.586;10.040;2023-11-21T12:40:13;0.82;;;0.80;;
35679;SDS011;21803;53.586;10.040;2023-11-21T12:42:43;1.27;;;0.80;;
35679;SDS011;21803;53.586;10.040;2023-11-21T12:47:43;1.65;;;0.90;;
35679;SDS011;21803;53.586;10.040;2023-11-21T12:50:10;1.17;;;0.90;;
35679;SDS011;21803;53.586;10.040;2023-11-21T12:52:40;2.33;;;1.10;;
35679;SDS011;21803;53.586;10.040;2023-11-21T12:55:16;1.67;;;0.93;;
35679;SDS011;21803;53.586;10.040;2023-11-21T12:57:47;2.35;;;1.00;;
35679;SDS011;21803;53.586;10.040;2023-11-21T13:00:15;1.25;;;1.10;;
35679;SDS011;21803;53.586;10.040;2023-11-21T13:02:51;0.77;;;0.70;;
35679;SDS011;21803;53.586;10.040;2023-11-21T13:05:28;1.35;;;0.90;;
35679;SDS011;21803;53.586;10.040;2023-11-21T13:07:56;1.30;;;0.98;;
35679;SDS011;21803;53.586;10.040;2023-11-21T13:10:24;0.73;;;0.73;;
35679;SDS011;21803;53.586;10.040;2023-11-21T13:12:53;1.27;;;0.90;;
35679;SDS011;21803;53.586;10.040;2023-11-21T13:15:22;1.00;;;0.90;;
35679;SDS011;21803;53.586;10.040;2023-11-21T13:17:49;1.58;;;1.17;;
35679;SDS011;21803;53.586;10.040;2023-11-21T13:20:16;1.27;;;1.00;;
35679;SDS011;21803;53.586;10.040;2023-11-21T13:22:46;0.98;;;0.88;;
35679;SDS011;21803;53.586;10.040;2023-11-21T13:25:14;1.33;;;1.10;;
35679;SDS011;21803;53.586;10.040;2023-11-21T13:27:45;1.10;;;0.85;;
35679;SDS011;21803;53.586;10.040;2023-11-21T13:30:12;1.23;;;1.00;;
35679;SDS011;21803;53.586;10.040;2023-11-21T13:32:42;1.05;;;0.95;;
35679;SDS011;21803;53.586;10.040;2023-11-21T13:35:08;1.30;;;0.85;;
35679;SDS011;21803;53.586;10.040;2023-11-21T13:37:40;1.30;;;0.82;;
35679;SDS011;21803;53.586;10.040;2023-11-21T13:40:07;2.05;;;1.20;;
35679;SDS011;21803;53.586;10.040;2023-11-21T13:42:39;0.80;;;0.80;;
35679;SDS011;21803;53.586;10.040;2023-11-21T13:45:06;1.08;;;0.98;;
35679;SDS011;21803;53.586;10.040;2023-11-21T13:47:32;1.85;;;0.80;;
35679;SDS011;21803;53.586;10.040;2023-11-21T13:49:59;0.80;;;0.73;;
35679;SDS011;21803;53.586;10.040;2023-11-21T13:52:25;1.10;;;0.80;;
35679;SDS011;21803;53.586;10.040;2023-11-21T13:54:52;1.38;;;1.00;;
35679;SDS011;21803;53.586;10.040;2023-11-21T13:57:18;1.00;;;0.90;;
35679;SDS011;21803;53.586;10.040;2023-11-21T13:59:45;1.00;;;0.90;;
35679;SDS011;21803;53.586;10.040;2023-11-21T14:02:11;1.00;;;0.80;;
35679;SDS011;21803;53.586;10.040;2023-11-21T14:04:43;1.27;;;0.90;;
35679;SDS011;21803;53.586;10.040;2023-11-21T14:07:20;1.08;;;0.95;;
35679;SDS011;21803;53.586;10.040;2023-11-21T14:10:01;1.83;;;0.90;;
35679;SDS011;21803;53.586;10.040;2023-11-21T14:12:28;0.80;;;0.80;;
35679;SDS011;21803;53.586;10.040;2023-11-21T14:14:54;1.17;;;0.90;;
35679;SDS011;21803;53.586;10.040;2023-11-21T14:17:20;1.25;;;0.95;;
35679;SDS011;21803;53.586;10.040;2023-11-21T14:19:47;1.55;;;0.93;;
35679;SDS011;21803;53.586;10.040;2023-11-21T14:22:14;1.02;;;0.90;;
35679;SDS011;21803;53.586;10.040;2023-11-21T14:24:39;1.02;;;0.90;;
35679;SDS011;21803;53.586;10.040;2023-11-21T14:27:11;0.95;;;0.77;;
35679;SDS011;21803;53.586;10.040;2023-11-21T14:29:37;0.82;;;0.80;;
35679;SDS011;21803;53.586;10.040;2023-11-21T14:32:04;0.80;;;0.70;;
35679;SDS011;21803;53.586;10.040;2023-11-21T14:34:30;0.98;;;0.80;;
35679;SDS011;21803;53.586;10.040;2023-11-21T14:36:56;1.05;;;0.95;;
35679;SDS011;21803;53.586;10.040;2023-11-21T14:39:21;1.25;;;1.00;;
35679;SDS011;21803;53.586;10.040;2023-11-21T14:41:54;1.00;;;0.90;;